Historique des mesures à Cassis (13260), France
Quotidien Résumé Avril 17, 2018 Unités:  Métrique    US   Métrique/US
« Précédent (Jour)
Suivant (Jour) »
Quotidien Hebdomadaire Mensuel Annuel Période au choix
  Maximum: Minimum: Moyenne:
Température: TemperatureC °C 15.4 °C 18 °C
Point de rosée: DewpointC °C 8.6 °C 10.5 °C
Humidité: Humidity % 53 % 58 %
Vitesse du vent: 0 km/h 0 km/h 3.2 km/h
Rafales: 0 km/h - -
Vent:- - SSE
Pression: PressurehPa hPa 1011.1 hPa -
Précipitations: 0.0 mm    
Historical Graphs
 
 
Mesures pour : Avril 17, 2018
Heure Temperature Point de rosée Pression Vent Vitesse du vent Rafales Humidité Pluie (par heure) Conditions
TemperatureC °C DewpointC °C PressurehPa hPa Calm     Humidity % HourlyPrecipMM mm SoftwareType W/m2
00:10 16.5 °C 9.7 °C 1011.1 hPa Calm   5.6 km/h 64 % 0.0 mm open2300-1.11 W/m2
01:10 15.9 °C 9.1 °C 1011.4 hPa NNE 2.9 km/h 4.2 km/h 64 % 0.0 mm open2300-1.11 W/m2
02:12 15.6 °C 9.1 °C 1011.7 hPa NNW 5.1 km/h 5.1 km/h 65 % 0.0 mm open2300-1.11 W/m2
03:12 15.5 °C 8.9 °C 1012.1 hPa Calm   4.2 km/h 65 % 0.0 mm open2300-1.11 W/m2
04:11 15.9 °C 9.3 °C 1012.1 hPa NNW 6.4 km/h 7.6 km/h 65 % 0.0 mm open2300-1.11 W/m2
05:11 16.1 °C 9.1 °C 1012.4 hPa NNW 2.3 km/h 4.2 km/h 63 % 0.0 mm open2300-1.11 W/m2
06:12 15.9 °C 8.9 °C 1013.1 hPa North 4.2 km/h 5.1 km/h 63 % 0.0 mm open2300-1.11 W/m2
07:12 15.4 °C 8.6 °C 1014.1 hPa Calm   1.8 km/h 64 % 0.0 mm open2300-1.11 W/m2
08:11 16.4 °C 9.6 °C 1015.1 hPa Calm   1.8 km/h 64 % 0.0 mm open2300-1.11 W/m2
09:11 17.2 °C 10.3 °C 1015.8 hPa SE 4.2 km/h 5.6 km/h 64 % 0.0 mm open2300-1.11 W/m2
10:11 17.4 °C 10.5 °C 1016.8 hPa SE 4.2 km/h 8 km/h 64 % 0.0 mm open2300-1.11 W/m2
11:11 20.4 °C 12.9 °C 1017.2 hPa ESE 6.9 km/h 9.3 km/h 62 % 0.0 mm open2300-1.11 W/m2
12:11 22.1 °C 13.4 °C 1017.5 hPa SE 6.4 km/h 10.3 km/h 58 % 0.0 mm open2300-1.11 W/m2
13:10 22.6 °C 13.6 °C 1017.2 hPa SE 9.3 km/h 13.2 km/h 57 % 0.0 mm open2300-1.11 W/m2
14:10 22.9 °C 13.1 °C 1017.2 hPa SE 11.6 km/h 13.2 km/h 54 % 0.0 mm open2300-1.11 W/m2
15:10 23.0 °C 12.8 °C 1017.5 hPa SE 5.6 km/h 5.6 km/h 53 % 0.0 mm open2300-1.11 W/m2
16:10 22.9 °C 12.8 °C 1017.8 hPa Calm   15 km/h 53 % 0.0 mm open2300-1.11 W/m2
17:10 22.1 °C 12.9 °C 1017.8 hPa ESE 2.3 km/h 7.6 km/h 56 % 0.0 mm open2300-1.11 W/m2
18:10 20.9 °C 13.1 °C 1017.8 hPa SE 5.1 km/h 8 km/h 61 % 0.0 mm open2300-1.11 W/m2
19:10 20.4 °C 12.4 °C 1017.8 hPa Calm   1.8 km/h 60 % 0.0 mm open2300-1.11 W/m2
20:10 19.8 °C 11.8 °C 1018.5 hPa Calm     60 % 0.0 mm open2300-1.11 W/m2
21:10 18.5 °C 10.3 °C 1018.8 hPa Calm   1.8 km/h 59 % 0.0 mm open2300-1.11 W/m2
22:10 17.8 °C 10.2 °C 1019.9 hPa Calm     61 % 0.0 mm open2300-1.11 W/m2
23:12 17.9 °C 9.7 °C 1020.2 hPa NW 3.4 km/h 5.6 km/h 59 % 0.0 mm open2300-1.11 W/m2
Observations météo à CASSIS
WU-History script by Weather Underground - 1 mb